sensor_id;sensor_type;location;lat;lon;timestamp;temperature;humidity
55135;DHT22;41031;44.750;11.308;2023-02-28T00:01:32;5.50;84.10
55135;DHT22;41031;44.750;11.308;2023-02-28T00:04:00;5.50;84.00
55135;DHT22;41031;44.750;11.308;2023-02-28T00:06:27;5.50;84.00
55135;DHT22;41031;44.750;11.308;2023-02-28T00:08:56;5.50;83.80
55135;DHT22;41031;44.750;11.308;2023-02-28T00:11:24;5.50;83.30
55135;DHT22;41031;44.750;11.308;2023-02-28T00:13:51;5.60;83.00
55135;DHT22;41031;44.750;11.308;2023-02-28T00:16:21;5.60;82.30
55135;DHT22;41031;44.750;11.308;2023-02-28T00:18:50;5.50;82.30
55135;DHT22;41031;44.750;11.308;2023-02-28T00:21:19;5.50;82.00
55135;DHT22;41031;44.750;11.308;2023-02-28T00:23:49;5.50;82.20
55135;DHT22;41031;44.750;11.308;2023-02-28T00:26:17;5.50;82.10
55135;DHT22;41031;44.750;11.308;2023-02-28T00:28:48;5.50;82.10
55135;DHT22;41031;44.750;11.308;2023-02-28T00:31:17;5.50;81.30
55135;DHT22;41031;44.750;11.308;2023-02-28T00:33:44;5.50;81.10
55135;DHT22;41031;44.750;11.308;2023-02-28T00:36:14;5.60;81.10
55135;DHT22;41031;44.750;11.308;2023-02-28T00:38:42;5.50;80.80
55135;DHT22;41031;44.750;11.308;2023-02-28T00:41:09;5.50;80.60
55135;DHT22;41031;44.750;11.308;2023-02-28T00:43:39;5.50;81.40
55135;DHT22;41031;44.750;11.308;2023-02-28T00:46:07;5.50;80.80
55135;DHT22;41031;44.750;11.308;2023-02-28T00:48:35;5.50;80.70
55135;DHT22;41031;44.750;11.308;2023-02-28T00:51:02;5.50;81.10
55135;DHT22;41031;44.750;11.308;2023-02-28T00:53:31;5.50;80.90
55135;DHT22;41031;44.750;11.308;2023-02-28T00:55:59;5.50;80.30
55135;DHT22;41031;44.750;11.308;2023-02-28T00:58:27;5.50;80.50
55135;DHT22;41031;44.750;11.308;2023-02-28T01:00:55;5.50;80.00
55135;DHT22;41031;44.750;11.308;2023-02-28T01:03:23;5.50;80.20
55135;DHT22;41031;44.750;11.308;2023-02-28T01:05:50;5.50;79.60
55135;DHT22;41031;44.750;11.308;2023-02-28T01:08:20;5.50;79.70
55135;DHT22;41031;44.750;11.308;2023-02-28T01:10:47;5.50;79.50
55135;DHT22;41031;44.750;11.308;2023-02-28T01:13:15;5.50;79.20
55135;DHT22;41031;44.750;11.308;2023-02-28T01:15:48;5.50;79.10
55135;DHT22;41031;44.750;11.308;2023-02-28T01:18:17;5.50;78.70
55135;DHT22;41031;44.750;11.308;2023-02-28T01:20:47;5.50;79.10
55135;DHT22;41031;44.750;11.308;2023-02-28T01:23:16;5.50;79.20
55135;DHT22;41031;44.750;11.308;2023-02-28T01:25:44;5.50;79.30
55135;DHT22;41031;44.750;11.308;2023-02-28T01:28:11;5.50;79.20
55135;DHT22;41031;44.750;11.308;2023-02-28T01:30:38;5.50;79.30
55135;DHT22;41031;44.750;11.308;2023-02-28T01:33:06;5.50;79.00
55135;DHT22;41031;44.750;11.308;2023-02-28T01:35:34;5.50;79.30
55135;DHT22;41031;44.750;11.308;2023-02-28T01:38:03;5.50;79.30
55135;DHT22;41031;44.750;11.308;2023-02-28T01:40:48;5.40;79.40
55135;DHT22;41031;44.750;11.308;2023-02-28T01:43:26;5.40;79.70
55135;DHT22;41031;44.750;11.308;2023-02-28T01:45:56;5.50;79.70
55135;DHT22;41031;44.750;11.308;2023-02-28T01:48:31;5.40;79.40
55135;DHT22;41031;44.750;11.308;2023-02-28T01:51:03;5.50;78.80
55135;DHT22;41031;44.750;11.308;2023-02-28T01:53:37;5.40;78.60
55135;DHT22;41031;44.750;11.308;2023-02-28T01:56:07;5.40;78.90
55135;DHT22;41031;44.750;11.308;2023-02-28T01:58:36;5.40;79.20
55135;DHT22;41031;44.750;11.308;2023-02-28T02:01:06;5.50;79.40
55135;DHT22;41031;44.750;11.308;2023-02-28T02:03:53;5.50;79.60
55135;DHT22;41031;44.750;11.308;2023-02-28T02:06:27;5.50;79.40
55135;DHT22;41031;44.750;11.308;2023-02-28T02:08:56;5.50;79.60
55135;DHT22;41031;44.750;11.308;2023-02-28T02:11:25;5.50;79.80
55135;DHT22;41031;44.750;11.308;2023-02-28T02:14:39;5.50;80.10
55135;DHT22;41031;44.750;11.308;2023-02-28T02:17:51;5.50;80.50
55135;DHT22;41031;44.750;11.308;2023-02-28T02:23:14;5.50;80.60
55135;DHT22;41031;44.750;11.308;2023-02-28T02:40:18;5.60;80.20
55135;DHT22;41031;44.750;11.308;2023-02-28T02:43:25;5.60;80.20
55135;DHT22;41031;44.750;11.308;2023-02-28T02:45:59;5.60;80.40
55135;DHT22;41031;44.750;11.308;2023-02-28T02:48:33;5.60;80.40
55135;DHT22;41031;44.750;11.308;2023-02-28T02:51:05;5.60;80.60
55135;DHT22;41031;44.750;11.308;2023-02-28T02:53:52;5.60;80.60
55135;DHT22;41031;44.750;11.308;2023-02-28T02:56:26;5.60;80.60
55135;DHT22;41031;44.750;11.308;2023-02-28T02:59:01;5.70;80.80
55135;DHT22;41031;44.750;11.308;2023-02-28T03:01:32;5.70;80.60
55135;DHT22;41031;44.750;11.308;2023-02-28T03:04:11;5.70;80.00
55135;DHT22;41031;44.750;11.308;2023-02-28T03:06:41;5.70;79.90
55135;DHT22;41031;44.750;11.308;2023-02-28T03:09:09;5.70;80.80
55135;DHT22;41031;44.750;11.308;2023-02-28T03:11:40;5.70;80.30
55135;DHT22;41031;44.750;11.308;2023-02-28T03:14:45;5.70;80.10
55135;DHT22;41031;44.750;11.308;2023-02-28T03:20:27;5.70;80.60
55135;DHT22;41031;44.750;11.308;2023-02-28T03:23:23;5.60;80.70
55135;DHT22;41031;44.750;11.308;2023-02-28T03:26:10;5.70;80.60
55135;DHT22;41031;44.750;11.308;2023-02-28T03:28:53;5.70;80.20
55135;DHT22;41031;44.750;11.308;2023-02-28T03:31:37;5.70;80.30
55135;DHT22;41031;44.750;11.308;2023-02-28T03:36:39;5.70;80.40
55135;DHT22;41031;44.750;11.308;2023-02-28T03:39:20;5.60;80.50
55135;DHT22;41031;44.750;11.308;2023-02-28T03:42:06;5.60;80.50
55135;DHT22;41031;44.750;11.308;2023-02-28T03:47:14;5.60;80.50
55135;DHT22;41031;44.750;11.308;2023-02-28T03:49:57;5.50;80.80
55135;DHT22;41031;44.750;11.308;2023-02-28T03:52:31;5.50;80.50
55135;DHT22;41031;44.750;11.308;2023-02-28T03:55:05;5.50;80.50
55135;DHT22;41031;44.750;11.308;2023-02-28T03:58:05;5.50;80.20
55135;DHT22;41031;44.750;11.308;2023-02-28T04:00:43;5.50;80.40
55135;DHT22;41031;44.750;11.308;2023-02-28T04:03:12;5.50;80.20
55135;DHT22;41031;44.750;11.308;2023-02-28T04:05:53;5.50;81.20
55135;DHT22;41031;44.750;11.308;2023-02-28T04:08:23;5.50;80.80
55135;DHT22;41031;44.750;11.308;2023-02-28T04:13:53;5.50;81.60
55135;DHT22;41031;44.750;11.308;2023-02-28T04:16:20;5.50;80.80
55135;DHT22;41031;44.750;11.308;2023-02-28T04:19:04;5.50;81.20
55135;DHT22;41031;44.750;11.308;2023-02-28T04:21:35;5.50;80.70
55135;DHT22;41031;44.750;11.308;2023-02-28T04:24:03;5.50;80.80
55135;DHT22;41031;44.750;11.308;2023-02-28T04:26:33;5.50;80.60
55135;DHT22;41031;44.750;11.308;2023-02-28T04:29:03;5.50;80.50
55135;DHT22;41031;44.750;11.308;2023-02-28T04:31:33;5.50;80.50
55135;DHT22;41031;44.750;11.308;2023-02-28T04:34:01;5.50;80.90
55135;DHT22;41031;44.750;11.308;2023-02-28T04:36:29;5.50;80.30
55135;DHT22;41031;44.750;11.308;2023-02-28T04:38:57;5.50;80.50
55135;DHT22;41031;44.750;11.308;2023-02-28T04:41:25;5.50;80.80
55135;DHT22;41031;44.750;11.308;2023-02-28T04:43:54;5.50;80.40
55135;DHT22;41031;44.750;11.308;2023-02-28T04:46:23;5.50;80.50
55135;DHT22;41031;44.750;11.308;2023-02-28T04:48:53;5.50;80.40
55135;DHT22;41031;44.750;11.308;2023-02-28T04:51:22;5.40;80.50
55135;DHT22;41031;44.750;11.308;2023-02-28T04:53:50;5.40;80.50
55135;DHT22;41031;44.750;11.308;2023-02-28T04:56:18;5.40;80.50
55135;DHT22;41031;44.750;11.308;2023-02-28T04:58:46;5.40;80.30
55135;DHT22;41031;44.750;11.308;2023-02-28T05:01:26;5.40;80.50
55135;DHT22;41031;44.750;11.308;2023-02-28T05:03:56;5.40;80.50
55135;DHT22;41031;44.750;11.308;2023-02-28T05:06:29;5.50;80.40
55135;DHT22;41031;44.750;11.308;2023-02-28T05:08:58;5.40;80.30
55135;DHT22;41031;44.750;11.308;2023-02-28T05:11:29;5.50;80.40
55135;DHT22;41031;44.750;11.308;2023-02-28T05:14:10;5.40;80.10
55135;DHT22;41031;44.750;11.308;2023-02-28T05:16:40;5.40;80.40
55135;DHT22;41031;44.750;11.308;2023-02-28T05:19:08;5.50;80.50
55135;DHT22;41031;44.750;11.308;2023-02-28T05:21:38;5.50;80.10
55135;DHT22;41031;44.750;11.308;2023-02-28T05:24:10;5.50;80.30
55135;DHT22;41031;44.750;11.308;2023-02-28T05:26:40;5.50;80.00
55135;DHT22;41031;44.750;11.308;2023-02-28T05:29:09;5.50;80.10
55135;DHT22;41031;44.750;11.308;2023-02-28T05:31:37;5.50;80.00
55135;DHT22;41031;44.750;11.308;2023-02-28T05:34:05;5.50;80.00
55135;DHT22;41031;44.750;11.308;2023-02-28T05:36:32;5.50;79.80
55135;DHT22;41031;44.750;11.308;2023-02-28T05:39:00;5.50;79.90
55135;DHT22;41031;44.750;11.308;2023-02-28T05:41:27;5.50;80.40
55135;DHT22;41031;44.750;11.308;2023-02-28T05:43:57;5.40;80.50
55135;DHT22;41031;44.750;11.308;2023-02-28T05:46:28;5.40;79.80
55135;DHT22;41031;44.750;11.308;2023-02-28T05:48:55;5.40;79.50
55135;DHT22;41031;44.750;11.308;2023-02-28T05:51:25;5.40;79.40
55135;DHT22;41031;44.750;11.308;2023-02-28T05:53:53;5.40;79.50
55135;DHT22;41031;44.750;11.308;2023-02-28T05:56:21;5.30;79.00
55135;DHT22;41031;44.750;11.308;2023-02-28T05:58:48;5.30;78.80
55135;DHT22;41031;44.750;11.308;2023-02-28T06:01:34;5.30;78.50
55135;DHT22;41031;44.750;11.308;2023-02-28T06:04:08;5.30;78.70
55135;DHT22;41031;44.750;11.308;2023-02-28T06:06:54;5.20;78.60
55135;DHT22;41031;44.750;11.308;2023-02-28T06:09:21;5.30;78.90
55135;DHT22;41031;44.750;11.308;2023-02-28T06:11:50;5.20;78.70
55135;DHT22;41031;44.750;11.308;2023-02-28T06:14:19;5.20;78.60
55135;DHT22;41031;44.750;11.308;2023-02-28T06:16:50;5.30;79.00
55135;DHT22;41031;44.750;11.308;2023-02-28T06:19:19;5.30;78.60
55135;DHT22;41031;44.750;11.308;2023-02-28T06:21:49;5.30;78.30
55135;DHT22;41031;44.750;11.308;2023-02-28T06:24:22;5.30;78.30
55135;DHT22;41031;44.750;11.308;2023-02-28T06:26:53;5.30;78.30
55135;DHT22;41031;44.750;11.308;2023-02-28T06:29:21;5.30;78.70
55135;DHT22;41031;44.750;11.308;2023-02-28T06:31:49;5.40;78.80
55135;DHT22;41031;44.750;11.308;2023-02-28T06:34:17;5.40;78.80
55135;DHT22;41031;44.750;11.308;2023-02-28T06:36:45;5.40;79.00
55135;DHT22;41031;44.750;11.308;2023-02-28T06:39:12;5.40;79.30
55135;DHT22;41031;44.750;11.308;2023-02-28T06:41:40;5.50;79.40
55135;DHT22;41031;44.750;11.308;2023-02-28T06:44:22;5.40;79.10
55135;DHT22;41031;44.750;11.308;2023-02-28T06:46:50;5.50;79.30
55135;DHT22;41031;44.750;11.308;2023-02-28T06:49:19;5.50;78.50
55135;DHT22;41031;44.750;11.308;2023-02-28T06:51:46;5.50;79.00
55135;DHT22;41031;44.750;11.308;2023-02-28T06:54:14;5.50;78.80
55135;DHT22;41031;44.750;11.308;2023-02-28T06:56:46;5.50;78.70
55135;DHT22;41031;44.750;11.308;2023-02-28T06:59:15;5.50;79.10
55135;DHT22;41031;44.750;11.308;2023-02-28T07:01:45;5.60;78.50
55135;DHT22;41031;44.750;11.308;2023-02-28T07:04:13;5.60;78.20
55135;DHT22;41031;44.750;11.308;2023-02-28T07:06:41;5.60;78.40
55135;DHT22;41031;44.750;11.308;2023-02-28T07:09:08;5.60;78.40
55135;DHT22;41031;44.750;11.308;2023-02-28T07:11:38;5.60;78.20
55135;DHT22;41031;44.750;11.308;2023-02-28T07:14:05;5.70;77.80
55135;DHT22;41031;44.750;11.308;2023-02-28T07:16:35;5.70;78.00
55135;DHT22;41031;44.750;11.308;2023-02-28T07:19:02;5.70;78.20
55135;DHT22;41031;44.750;11.308;2023-02-28T07:21:30;5.70;78.40
55135;DHT22;41031;44.750;11.308;2023-02-28T07:23:58;5.70;78.30
55135;DHT22;41031;44.750;11.308;2023-02-28T07:26:31;5.80;78.20
55135;DHT22;41031;44.750;11.308;2023-02-28T07:29:02;5.80;77.70
55135;DHT22;41031;44.750;11.308;2023-02-28T07:31:32;5.80;77.50
55135;DHT22;41031;44.750;11.308;2023-02-28T07:34:00;5.80;77.60
55135;DHT22;41031;44.750;11.308;2023-02-28T07:36:30;5.80;77.20
55135;DHT22;41031;44.750;11.308;2023-02-28T07:39:04;5.90;77.10
55135;DHT22;41031;44.750;11.308;2023-02-28T07:41:32;5.90;76.90
55135;DHT22;41031;44.750;11.308;2023-02-28T07:44:01;5.90;77.60
55135;DHT22;41031;44.750;11.308;2023-02-28T07:46:30;5.90;77.20
55135;DHT22;41031;44.750;11.308;2023-02-28T07:49:09;6.00;76.40
55135;DHT22;41031;44.750;11.308;2023-02-28T07:51:39;6.00;77.40
55135;DHT22;41031;44.750;11.308;2023-02-28T07:54:10;5.90;76.90
55135;DHT22;41031;44.750;11.308;2023-02-28T07:56:39;6.00;77.30
55135;DHT22;41031;44.750;11.308;2023-02-28T07:59:09;6.00;77.50
55135;DHT22;41031;44.750;11.308;2023-02-28T08:01:38;6.00;76.80
55135;DHT22;41031;44.750;11.308;2023-02-28T08:04:06;6.10;76.90
55135;DHT22;41031;44.750;11.308;2023-02-28T08:06:35;6.10;77.50
55135;DHT22;41031;44.750;11.308;2023-02-28T08:09:08;6.10;77.30
55135;DHT22;41031;44.750;11.308;2023-02-28T08:11:36;6.20;77.40
55135;DHT22;41031;44.750;11.308;2023-02-28T08:14:06;6.20;77.10
55135;DHT22;41031;44.750;11.308;2023-02-28T08:16:36;6.30;77.20
55135;DHT22;41031;44.750;11.308;2023-02-28T08:19:04;6.30;77.30
55135;DHT22;41031;44.750;11.308;2023-02-28T08:21:37;6.40;76.30
55135;DHT22;41031;44.750;11.308;2023-02-28T08:24:09;6.40;77.00
55135;DHT22;41031;44.750;11.308;2023-02-28T08:26:39;6.50;75.80
55135;DHT22;41031;44.750;11.308;2023-02-28T08:29:07;6.50;76.30
55135;DHT22;41031;44.750;11.308;2023-02-28T08:31:34;6.60;75.70
55135;DHT22;41031;44.750;11.308;2023-02-28T08:34:17;6.70;75.40
55135;DHT22;41031;44.750;11.308;2023-02-28T08:36:46;6.80;75.90
55135;DHT22;41031;44.750;11.308;2023-02-28T08:39:13;6.80;75.90
55135;DHT22;41031;44.750;11.308;2023-02-28T08:41:42;6.90;75.20
55135;DHT22;41031;44.750;11.308;2023-02-28T08:44:10;7.00;74.60
55135;DHT22;41031;44.750;11.308;2023-02-28T08:46:39;7.10;74.90
55135;DHT22;41031;44.750;11.308;2023-02-28T08:49:10;7.20;74.20
55135;DHT22;41031;44.750;11.308;2023-02-28T08:51:42;7.30;73.90
55135;DHT22;41031;44.750;11.308;2023-02-28T08:54:15;7.40;73.50
55135;DHT22;41031;44.750;11.308;2023-02-28T08:56:48;7.50;72.60
55135;DHT22;41031;44.750;11.308;2023-02-28T08:59:17;7.50;71.30
55135;DHT22;41031;44.750;11.308;2023-02-28T09:01:45;7.60;70.80
55135;DHT22;41031;44.750;11.308;2023-02-28T09:04:15;7.60;70.90
55135;DHT22;41031;44.750;11.308;2023-02-28T09:06:46;7.60;70.70
55135;DHT22;41031;44.750;11.308;2023-02-28T09:09:17;7.70;70.90
55135;DHT22;41031;44.750;11.308;2023-02-28T09:11:45;7.70;70.80
55135;DHT22;41031;44.750;11.308;2023-02-28T09:14:13;7.70;71.20
55135;DHT22;41031;44.750;11.308;2023-02-28T09:16:42;7.80;70.70
55135;DHT22;41031;44.750;11.308;2023-02-28T09:19:13;7.90;71.30
55135;DHT22;41031;44.750;11.308;2023-02-28T09:21:42;8.00;70.00
55135;DHT22;41031;44.750;11.308;2023-02-28T09:24:10;8.10;70.70
55135;DHT22;41031;44.750;11.308;2023-02-28T09:26:41;8.20;71.60
55135;DHT22;41031;44.750;11.308;2023-02-28T09:29:31;8.20;70.60
55135;DHT22;41031;44.750;11.308;2023-02-28T09:32:00;8.30;70.20
55135;DHT22;41031;44.750;11.308;2023-02-28T09:34:28;8.40;69.20
55135;DHT22;41031;44.750;11.308;2023-02-28T09:37:02;8.40;68.90
55135;DHT22;41031;44.750;11.308;2023-02-28T09:39:31;8.40;70.00
55135;DHT22;41031;44.750;11.308;2023-02-28T09:42:01;8.40;70.20
55135;DHT22;41031;44.750;11.308;2023-02-28T09:44:37;8.50;70.20
55135;DHT22;41031;44.750;11.308;2023-02-28T09:50:33;8.60;69.30
55135;DHT22;41031;44.750;11.308;2023-02-28T09:53:19;8.60;69.50
55135;DHT22;41031;44.750;11.308;2023-02-28T09:55:57;8.60;69.90
55135;DHT22;41031;44.750;11.308;2023-02-28T10:02:16;8.50;68.90
55135;DHT22;41031;44.750;11.308;2023-02-28T10:04:47;8.50;69.80
55135;DHT22;41031;44.750;11.308;2023-02-28T10:07:50;8.50;70.00
55135;DHT22;41031;44.750;11.308;2023-02-28T10:13:02;8.60;70.50
55135;DHT22;41031;44.750;11.308;2023-02-28T10:15:34;8.60;70.70
55135;DHT22;41031;44.750;11.308;2023-02-28T10:18:05;8.70;68.90
55135;DHT22;41031;44.750;11.308;2023-02-28T10:20:39;8.70;69.20
55135;DHT22;41031;44.750;11.308;2023-02-28T10:23:21;8.80;70.30
55135;DHT22;41031;44.750;11.308;2023-02-28T10:26:05;8.90;68.70
55135;DHT22;41031;44.750;11.308;2023-02-28T10:28:55;8.90;68.40
55135;DHT22;41031;44.750;11.308;2023-02-28T10:31:22;9.00;68.50
55135;DHT22;41031;44.750;11.308;2023-02-28T10:33:52;9.00;67.40
55135;DHT22;41031;44.750;11.308;2023-02-28T10:36:20;9.00;68.20
55135;DHT22;41031;44.750;11.308;2023-02-28T10:38:49;9.00;68.50
55135;DHT22;41031;44.750;11.308;2023-02-28T10:41:28;9.00;70.00
55135;DHT22;41031;44.750;11.308;2023-02-28T10:44:21;9.00;68.80
55135;DHT22;41031;44.750;11.308;2023-02-28T10:46:49;9.00;68.60
55135;DHT22;41031;44.750;11.308;2023-02-28T10:49:23;9.00;68.10
55135;DHT22;41031;44.750;11.308;2023-02-28T10:51:59;9.00;69.70
55135;DHT22;41031;44.750;11.308;2023-02-28T10:54:32;9.10;68.30
55135;DHT22;41031;44.750;11.308;2023-02-28T10:57:19;9.20;69.10
55135;DHT22;41031;44.750;11.308;2023-02-28T10:59:51;9.40;68.60
55135;DHT22;41031;44.750;11.308;2023-02-28T11:02:32;9.60;68.30
55135;DHT22;41031;44.750;11.308;2023-02-28T11:05:02;9.80;68.60
55135;DHT22;41031;44.750;11.308;2023-02-28T11:07:29;9.90;66.00
55135;DHT22;41031;44.750;11.308;2023-02-28T11:10:20;9.90;65.40
55135;DHT22;41031;44.750;11.308;2023-02-28T11:12:48;9.90;65.90
55135;DHT22;41031;44.750;11.308;2023-02-28T11:20:40;10.00;67.20
55135;DHT22;41031;44.750;11.308;2023-02-28T11:23:12;10.00;67.40
55135;DHT22;41031;44.750;11.308;2023-02-28T11:25:50;10.10;66.10
55135;DHT22;41031;44.750;11.308;2023-02-28T11:28:29;10.20;65.70
55135;DHT22;41031;44.750;11.308;2023-02-28T11:33:43;10.30;66.60
55135;DHT22;41031;44.750;11.308;2023-02-28T11:36:19;10.30;65.20
55135;DHT22;41031;44.750;11.308;2023-02-28T11:38:48;10.30;62.80
55135;DHT22;41031;44.750;11.308;2023-02-28T11:44:21;10.40;63.60
55135;DHT22;41031;44.750;11.308;2023-02-28T11:47:11;10.40;62.40
55135;DHT22;41031;44.750;11.308;2023-02-28T11:49:47;10.40;61.80
55135;DHT22;41031;44.750;11.308;2023-02-28T12:04:01;10.20;63.30
55135;DHT22;41031;44.750;11.308;2023-02-28T12:06:43;10.20;64.30
55135;DHT22;41031;44.750;11.308;2023-02-28T12:17:35;10.40;62.60
55135;DHT22;41031;44.750;11.308;2023-02-28T12:28:03;10.40;64.60
55135;DHT22;41031;44.750;11.308;2023-02-28T12:30:33;10.50;64.70
55135;DHT22;41031;44.750;11.308;2023-02-28T12:33:12;10.60;63.20
55135;DHT22;41031;44.750;11.308;2023-02-28T12:35:57;10.60;63.70
55135;DHT22;41031;44.750;11.308;2023-02-28T12:38:54;10.70;63.90
55135;DHT22;41031;44.750;11.308;2023-02-28T12:44:02;10.90;63.90
55135;DHT22;41031;44.750;11.308;2023-02-28T12:46:35;11.00;64.00
55135;DHT22;41031;44.750;11.308;2023-02-28T12:49:39;11.20;63.60
55135;DHT22;41031;44.750;11.308;2023-02-28T12:52:11;11.20;61.20
55135;DHT22;41031;44.750;11.308;2023-02-28T12:57:52;11.20;61.30
55135;DHT22;41031;44.750;11.308;2023-02-28T13:00:24;11.10;61.50
55135;DHT22;41031;44.750;11.308;2023-02-28T13:11:05;10.90;63.20
55135;DHT22;41031;44.750;11.308;2023-02-28T13:13:45;10.80;63.00
55135;DHT22;41031;44.750;11.308;2023-02-28T13:16:12;10.80;63.10
55135;DHT22;41031;44.750;11.308;2023-02-28T13:18:43;10.80;64.20
55135;DHT22;41031;44.750;11.308;2023-02-28T13:21:26;11.00;63.10
55135;DHT22;41031;44.750;11.308;2023-02-28T13:34:37;11.00;61.70
55135;DHT22;41031;44.750;11.308;2023-02-28T13:39:48;10.90;63.40
55135;DHT22;41031;44.750;11.308;2023-02-28T13:56:08;10.90;62.30
55135;DHT22;41031;44.750;11.308;2023-02-28T13:58:58;10.80;62.70
55135;DHT22;41031;44.750;11.308;2023-02-28T14:07:09;10.70;66.20
55135;DHT22;41031;44.750;11.308;2023-02-28T14:09:48;10.70;64.90
55135;DHT22;41031;44.750;11.308;2023-02-28T14:12:57;10.60;64.00
55135;DHT22;41031;44.750;11.308;2023-02-28T14:15:30;10.60;64.60
55135;DHT22;41031;44.750;11.308;2023-02-28T14:18:05;10.60;66.20
55135;DHT22;41031;44.750;11.308;2023-02-28T14:20:33;10.60;66.60
55135;DHT22;41031;44.750;11.308;2023-02-28T14:23:33;10.60;65.20
55135;DHT22;41031;44.750;11.308;2023-02-28T14:31:34;10.70;66.20
55135;DHT22;41031;44.750;11.308;2023-02-28T14:34:34;10.80;66.80
55135;DHT22;41031;44.750;11.308;2023-02-28T14:37:03;10.80;66.90
55135;DHT22;41031;44.750;11.308;2023-02-28T14:39:31;10.90;65.20
55135;DHT22;41031;44.750;11.308;2023-02-28T14:41:59;10.90;64.50
55135;DHT22;41031;44.750;11.308;2023-02-28T14:44:32;10.90;65.20
55135;DHT22;41031;44.750;11.308;2023-02-28T14:47:03;10.90;64.00
55135;DHT22;41031;44.750;11.308;2023-02-28T14:49:36;10.80;64.70
55135;DHT22;41031;44.750;11.308;2023-02-28T14:52:23;10.80;65.60
55135;DHT22;41031;44.750;11.308;2023-02-28T14:54:56;10.70;66.10
55135;DHT22;41031;44.750;11.308;2023-02-28T14:57:30;10.70;66.40
55135;DHT22;41031;44.750;11.308;2023-02-28T15:00:15;10.60;66.40
55135;DHT22;41031;44.750;11.308;2023-02-28T15:02:43;10.60;66.90
55135;DHT22;41031;44.750;11.308;2023-02-28T15:05:18;10.60;66.90
55135;DHT22;41031;44.750;11.308;2023-02-28T15:07:47;10.60;66.70
55135;DHT22;41031;44.750;11.308;2023-02-28T15:10:24;10.70;67.20
55135;DHT22;41031;44.750;11.308;2023-02-28T15:15:52;10.60;68.50
55135;DHT22;41031;44.750;11.308;2023-02-28T15:21:08;10.50;68.00
55135;DHT22;41031;44.750;11.308;2023-02-28T15:23:38;10.50;68.40
55135;DHT22;41031;44.750;11.308;2023-02-28T15:26:12;10.50;69.00
55135;DHT22;41031;44.750;11.308;2023-02-28T15:28:41;10.40;69.10
55135;DHT22;41031;44.750;11.308;2023-02-28T15:31:23;10.40;69.20
55135;DHT22;41031;44.750;11.308;2023-02-28T15:33:55;10.40;68.90
55135;DHT22;41031;44.750;11.308;2023-02-28T15:36:26;10.40;67.70
55135;DHT22;41031;44.750;11.308;2023-02-28T15:38:55;10.30;68.50
55135;DHT22;41031;44.750;11.308;2023-02-28T15:41:37;10.30;68.20
55135;DHT22;41031;44.750;11.308;2023-02-28T15:44:34;10.20;67.90
55135;DHT22;41031;44.750;11.308;2023-02-28T15:47:25;10.20;69.20
55135;DHT22;41031;44.750;11.308;2023-02-28T15:49:57;10.20;69.20
55135;DHT22;41031;44.750;11.308;2023-02-28T15:52:37;10.20;69.90
55135;DHT22;41031;44.750;11.308;2023-02-28T15:57:39;10.20;70.60
55135;DHT22;41031;44.750;11.308;2023-02-28T16:00:11;10.10;70.60
55135;DHT22;41031;44.750;11.308;2023-02-28T16:02:40;10.10;70.70
55135;DHT22;41031;44.750;11.308;2023-02-28T16:07:40;10.10;71.10
55135;DHT22;41031;44.750;11.308;2023-02-28T16:10:10;10.10;70.50
55135;DHT22;41031;44.750;11.308;2023-02-28T16:12:39;10.10;70.40
55135;DHT22;41031;44.750;11.308;2023-02-28T16:17:46;10.00;71.00
55135;DHT22;41031;44.750;11.308;2023-02-28T16:20:24;10.00;70.90
55135;DHT22;41031;44.750;11.308;2023-02-28T16:22:52;10.00;70.90
55135;DHT22;41031;44.750;11.308;2023-02-28T16:25:28;10.00;71.10
55135;DHT22;41031;44.750;11.308;2023-02-28T16:27:57;10.00;71.40
55135;DHT22;41031;44.750;11.308;2023-02-28T16:30:28;10.00;71.60
55135;DHT22;41031;44.750;11.308;2023-02-28T16:32:58;10.00;71.60
55135;DHT22;41031;44.750;11.308;2023-02-28T16:35:26;10.00;71.60
55135;DHT22;41031;44.750;11.308;2023-02-28T16:37:53;9.90;71.70
55135;DHT22;41031;44.750;11.308;2023-02-28T16:40:25;9.90;71.80
55135;DHT22;41031;44.750;11.308;2023-02-28T16:42:55;9.90;71.90
55135;DHT22;41031;44.750;11.308;2023-02-28T16:45:27;9.80;72.20
55135;DHT22;41031;44.750;11.308;2023-02-28T16:47:54;9.80;72.40
55135;DHT22;41031;44.750;11.308;2023-02-28T16:50:31;9.70;72.70
55135;DHT22;41031;44.750;11.308;2023-02-28T16:53:01;9.70;73.10
55135;DHT22;41031;44.750;11.308;2023-02-28T16:55:28;9.70;73.20
55135;DHT22;41031;44.750;11.308;2023-02-28T16:57:57;9.70;73.50
55135;DHT22;41031;44.750;11.308;2023-02-28T17:00:26;9.70;73.80
55135;DHT22;41031;44.750;11.308;2023-02-28T17:02:55;9.60;74.00
55135;DHT22;41031;44.750;11.308;2023-02-28T17:05:22;9.60;74.10
55135;DHT22;41031;44.750;11.308;2023-02-28T17:07:49;9.50;74.20
55135;DHT22;41031;44.750;11.308;2023-02-28T17:10:19;9.50;74.40
55135;DHT22;41031;44.750;11.308;2023-02-28T17:12:47;9.40;74.60
55135;DHT22;41031;44.750;11.308;2023-02-28T17:15:15;9.40;74.80
55135;DHT22;41031;44.750;11.308;2023-02-28T17:17:43;9.30;75.20
55135;DHT22;41031;44.750;11.308;2023-02-28T17:20:19;9.30;75.50
55135;DHT22;41031;44.750;11.308;2023-02-28T17:22:53;9.20;75.60
55135;DHT22;41031;44.750;11.308;2023-02-28T17:25:21;9.20;75.90
55135;DHT22;41031;44.750;11.308;2023-02-28T17:27:48;9.20;76.20
55135;DHT22;41031;44.750;11.308;2023-02-28T17:30:26;9.10;76.00
55135;DHT22;41031;44.750;11.308;2023-02-28T17:32:56;9.10;76.20
55135;DHT22;41031;44.750;11.308;2023-02-28T17:35:24;9.00;76.30
55135;DHT22;41031;44.750;11.308;2023-02-28T17:37:53;8.90;76.40
55135;DHT22;41031;44.750;11.308;2023-02-28T17:40:22;8.90;77.20
55135;DHT22;41031;44.750;11.308;2023-02-28T17:42:49;8.80;76.70
55135;DHT22;41031;44.750;11.308;2023-02-28T17:45:19;8.80;76.90
55135;DHT22;41031;44.750;11.308;2023-02-28T17:47:48;8.80;77.10
55135;DHT22;41031;44.750;11.308;2023-02-28T17:50:20;8.70;77.20
55135;DHT22;41031;44.750;11.308;2023-02-28T17:52:48;8.70;77.40
55135;DHT22;41031;44.750;11.308;2023-02-28T17:55:17;8.70;77.50
55135;DHT22;41031;44.750;11.308;2023-02-28T17:57:46;8.60;77.60
55135;DHT22;41031;44.750;11.308;2023-02-28T18:00:15;8.60;77.80
55135;DHT22;41031;44.750;11.308;2023-02-28T18:02:43;8.60;78.00
55135;DHT22;41031;44.750;11.308;2023-02-28T18:05:10;8.60;78.10
55135;DHT22;41031;44.750;11.308;2023-02-28T18:07:38;8.60;78.20
55135;DHT22;41031;44.750;11.308;2023-02-28T18:10:07;8.60;78.40
55135;DHT22;41031;44.750;11.308;2023-02-28T18:12:34;8.60;78.70
55135;DHT22;41031;44.750;11.308;2023-02-28T18:15:02;8.60;79.00
55135;DHT22;41031;44.750;11.308;2023-02-28T18:17:29;8.50;79.30
55135;DHT22;41031;44.750;11.308;2023-02-28T18:19:56;8.50;79.50
55135;DHT22;41031;44.750;11.308;2023-02-28T18:22:24;8.40;79.70
55135;DHT22;41031;44.750;11.308;2023-02-28T18:24:51;8.40;79.70